Time;durP1;ratioP1;P1;durP2;ratioP2;P2;SDS_P1;SDS_P2;PMS_P1;PMS_P2;Temp;Humidity;BMP_temperature;BMP_pressure;BME280_temperature;BME280_humidity;BME280_pressure;Samples;Min_cycle;Max_cycle;Signal;HPM_P1;HPM_P2
2024/01/24 00:01:01;;;;;;;;;;;21.40;33.50;;;;;;5052732;28;20019;-58
2024/01/24 00:03:28;;;;;;;;;;;21.40;33.50;;;;;;5035421;28;19928;-58
2024/01/24 00:05:55;;;;;;;;;;;21.40;33.40;;;;;;5053284;28;19929;-58
2024/01/24 00:08:23;;;;;;;;;;;21.40;33.50;;;;;;5052951;28;19928;-59
2024/01/24 00:10:50;;;;;;;;;;;21.40;33.40;;;;;;5052925;28;19952;-58
2024/01/24 00:13:17;;;;;;;;;;;21.40;33.40;;;;;;5052312;28;20231;-59
2024/01/24 00:15:44;;;;;;;;;;;21.40;33.40;;;;;;5052657;28;19936;-58
2024/01/24 00:18:11;;;;;;;;;;;21.40;33.90;;;;;;5052735;28;19925;-58
2024/01/24 00:20:38;;;;;;;;;;;21.40;33.30;;;;;;5052990;28;19932;-58
2024/01/24 00:23:05;;;;;;;;;;;21.40;33.30;;;;;;5052751;28;20443;-63
2024/01/24 00:25:32;;;;;;;;;;;21.40;33.30;;;;;;5052769;28;19928;-64
2024/01/24 00:27:59;;;;;;;;;;;21.30;33.20;;;;;;5052869;28;20432;-62
2024/01/24 00:30:26;;;;;;;;;;;21.40;33.20;;;;;;5052485;28;19924;-62
2024/01/24 00:32:53;;;;;;;;;;;21.40;33.20;;;;;;5053006;28;19925;-61
2024/01/24 00:35:20;;;;;;;;;;;21.40;33.20;;;;;;5052378;28;19933;-58
2024/01/24 00:37:47;;;;;;;;;;;21.40;33.20;;;;;;5052426;28;19924;-61
2024/01/24 00:40:14;;;;;;;;;;;21.40;33.20;;;;;;5052358;28;19986;-61
2024/01/24 00:42:42;;;;;;;;;;;21.30;33.10;;;;;;5053053;28;19931;-62
2024/01/24 00:45:11;;;;;;;;;;;21.30;33.10;;;;;;5052606;28;19928;-60
2024/01/24 00:47:39;;;;;;;;;;;21.30;33.10;;;;;;5064701;28;20389;-62
2024/01/24 00:50:06;;;;;;;;;;;21.30;33.00;;;;;;5076755;28;19931;-64
2024/01/24 00:52:33;;;;;;;;;;;21.30;33.00;;;;;;5076623;28;19924;-65
2024/01/24 00:55:00;;;;;;;;;;;21.30;33.00;;;;;;5076624;28;19928;-64
2024/01/24 00:57:27;;;;;;;;;;;21.30;33.10;;;;;;5076714;28;19986;-63
2024/01/24 00:59:54;;;;;;;;;;;21.30;33.10;;;;;;5076619;28;19924;-61
2024/01/24 01:02:21;;;;;;;;;;;21.30;33.10;;;;;;5076424;28;19932;-62
2024/01/24 01:04:49;;;;;;;;;;;21.30;33.10;;;;;;5076036;28;19978;-59
2024/01/24 01:07:16;;;;;;;;;;;21.30;33.10;;;;;;5058711;28;20271;-61
2024/01/24 01:09:43;;;;;;;;;;;21.30;33.20;;;;;;5076116;28;19990;-62
2024/01/24 01:12:10;;;;;;;;;;;21.30;33.10;;;;;;5076176;28;19951;-61
2024/01/24 01:14:37;;;;;;;;;;;21.30;33.10;;;;;;5058416;28;19938;-59
2024/01/24 01:17:04;;;;;;;;;;;21.30;33.00;;;;;;5058732;28;19936;-59
2024/01/24 01:19:31;;;;;;;;;;;21.30;33.00;;;;;;5075453;28;19932;-59
2024/01/24 01:21:58;;;;;;;;;;;21.30;33.00;;;;;;5075753;28;20493;-59
2024/01/24 01:24:25;;;;;;;;;;;21.30;32.90;;;;;;5058270;28;19978;-59
2024/01/24 01:26:52;;;;;;;;;;;21.30;32.90;;;;;;5076273;28;19932;-59
2024/01/24 01:29:19;;;;;;;;;;;21.30;32.90;;;;;;5075701;28;19931;-59
2024/01/24 01:31:46;;;;;;;;;;;21.30;32.90;;;;;;5076144;28;19931;-59
2024/01/24 01:34:13;;;;;;;;;;;21.30;32.90;;;;;;5075766;28;19924;-59
2024/01/24 01:36:40;;;;;;;;;;;21.30;32.90;;;;;;5075507;28;20370;-59
2024/01/24 01:39:07;;;;;;;;;;;21.30;32.90;;;;;;5075728;28;20280;-59
2024/01/24 01:41:36;;;;;;;;;;;21.30;32.90;;;;;;5075565;28;19924;-59
2024/01/24 01:44:03;;;;;;;;;;;21.30;32.90;;;;;;5075692;28;20027;-59
2024/01/24 01:46:31;;;;;;;;;;;21.30;32.90;;;;;;5075939;28;19943;-59
2024/01/24 01:48:59;;;;;;;;;;;21.20;32.80;;;;;;5075714;28;19924;-59
2024/01/24 01:51:26;;;;;;;;;;;21.20;32.80;;;;;;5075267;28;19931;-59
2024/01/24 01:53:54;;;;;;;;;;;21.20;32.80;;;;;;5075139;28;19928;-59
2024/01/24 01:56:22;;;;;;;;;;;21.20;32.80;;;;;;5075704;28;19935;-59
2024/01/24 01:58:49;;;;;;;;;;;21.20;32.80;;;;;;5074853;28;19924;-59
2024/01/24 02:01:17;;;;;;;;;;;21.20;32.80;;;;;;5075356;28;19931;-59
2024/01/24 02:03:45;;;;;;;;;;;21.20;32.80;;;;;;5075116;28;19932;-59
2024/01/24 02:06:13;;;;;;;;;;;21.20;32.80;;;;;;5075065;28;19978;-59
2024/01/24 02:08:40;;;;;;;;;;;21.20;32.80;;;;;;5075516;28;20296;-59
2024/01/24 02:11:07;;;;;;;;;;;21.20;32.80;;;;;;5074876;28;19975;-59
2024/01/24 02:13:34;;;;;;;;;;;21.20;32.80;;;;;;5074863;28;20408;-59
2024/01/24 02:16:04;;;;;;;;;;;21.20;32.80;;;;;;5075040;28;19933;-59
2024/01/24 02:18:31;;;;;;;;;;;21.20;32.80;;;;;;5074886;28;19929;-59
2024/01/24 02:20:58;;;;;;;;;;;21.20;32.80;;;;;;5074791;28;19932;-59
2024/01/24 02:23:26;;;;;;;;;;;21.20;32.80;;;;;;5074583;28;20014;-59
2024/01/24 02:25:53;;;;;;;;;;;21.20;32.80;;;;;;5074571;28;20328;-59
2024/01/24 02:28:20;;;;;;;;;;;21.20;32.70;;;;;;5074954;28;20413;-59
2024/01/24 02:30:47;;;;;;;;;;;21.20;32.70;;;;;;5074649;28;19924;-59
2024/01/24 02:33:14;;;;;;;;;;;21.20;32.60;;;;;;5074624;28;19931;-59
2024/01/24 02:35:42;;;;;;;;;;;21.20;32.60;;;;;;5074698;28;19929;-59
2024/01/24 02:38:08;;;;;;;;;;;21.20;32.60;;;;;;5075005;28;20014;-59
2024/01/24 02:40:36;;;;;;;;;;;21.20;32.60;;;;;;5074315;28;19975;-59
2024/01/24 02:43:03;;;;;;;;;;;21.20;32.60;;;;;;5074480;28;19946;-59
2024/01/24 02:45:30;;;;;;;;;;;21.20;32.60;;;;;;5074397;28;19924;-59
2024/01/24 02:47:57;;;;;;;;;;;21.20;32.60;;;;;;5074416;28;19979;-59
2024/01/24 02:50:24;;;;;;;;;;;21.20;32.60;;;;;;5074388;28;19924;-59
2024/01/24 02:52:51;;;;;;;;;;;21.10;32.50;;;;;;5074719;28;20274;-59
2024/01/24 02:55:18;;;;;;;;;;;21.20;32.60;;;;;;5074015;28;20374;-60
2024/01/24 02:57:45;;;;;;;;;;;21.20;32.60;;;;;;5074111;28;19924;-59
2024/01/24 03:00:15;;;;;;;;;;;21.10;32.50;;;;;;5073816;28;19971;-59
2024/01/24 03:02:42;;;;;;;;;;;21.10;32.50;;;;;;5073941;28;19928;-59
2024/01/24 03:05:09;;;;;;;;;;;21.10;32.50;;;;;;5074192;28;20301;-59
2024/01/24 03:07:37;;;;;;;;;;;21.10;32.50;;;;;;5074035;28;19975;-59
2024/01/24 03:10:04;;;;;;;;;;;21.10;32.60;;;;;;5073250;28;19928;-59
2024/01/24 03:12:31;;;;;;;;;;;21.10;32.60;;;;;;5073831;28;19932;-59
2024/01/24 03:14:58;;;;;;;;;;;21.10;32.50;;;;;;5073838;28;20284;-59
2024/01/24 03:17:25;;;;;;;;;;;21.10;32.50;;;;;;5073035;28;19929;-60
2024/01/24 03:19:53;;;;;;;;;;;21.10;32.50;;;;;;5073899;28;20294;-59
2024/01/24 03:22:20;;;;;;;;;;;21.10;32.50;;;;;;5073892;28;20386;-59
2024/01/24 03:24:46;;;;;;;;;;;21.10;32.60;;;;;;5073579;28;20339;-59
2024/01/24 03:27:14;;;;;;;;;;;21.10;32.60;;;;;;5073570;28;19951;-59
2024/01/24 03:29:42;;;;;;;;;;;21.10;32.60;;;;;;5073659;28;19929;-59
2024/01/24 03:32:09;;;;;;;;;;;21.10;32.60;;;;;;5073565;28;19924;-59
2024/01/24 03:34:36;;;;;;;;;;;21.10;32.60;;;;;;5073168;28;19971;-59
2024/01/24 03:37:03;;;;;;;;;;;21.10;32.50;;;;;;5073238;28;20404;-59
2024/01/24 03:39:30;;;;;;;;;;;21.10;32.50;;;;;;5055729;28;19958;-59
2024/01/24 03:41:57;;;;;;;;;;;21.10;32.50;;;;;;5073662;28;20378;-61
2024/01/24 03:44:24;;;;;;;;;;;21.10;32.50;;;;;;5073226;28;19925;-59
2024/01/24 03:46:52;;;;;;;;;;;21.10;32.50;;;;;;5073276;28;19932;-59
2024/01/24 03:49:21;;;;;;;;;;;21.10;32.40;;;;;;5073105;28;19975;-59
2024/01/24 03:51:48;;;;;;;;;;;21.10;32.40;;;;;;5056136;28;19955;-59
2024/01/24 03:54:15;;;;;;;;;;;21.10;32.40;;;;;;5072977;28;20023;-59
2024/01/24 03:56:42;;;;;;;;;;;21.10;32.40;;;;;;5073350;28;19925;-59
2024/01/24 03:59:09;;;;;;;;;;;21.10;32.40;;;;;;5073191;28;19924;-59
2024/01/24 04:01:36;;;;;;;;;;;21.10;32.40;;;;;;5073186;28;19928;-59
2024/01/24 04:04:03;;;;;;;;;;;21.10;32.40;;;;;;5072827;28;20496;-59
2024/01/24 04:06:30;;;;;;;;;;;21.10;32.30;;;;;;5073141;28;19925;-59
2024/01/24 04:08:57;;;;;;;;;;;21.10;32.40;;;;;;5073013;28;19943;-59
2024/01/24 04:11:24;;;;;;;;;;;21.10;32.40;;;;;;5072860;28;19935;-59
2024/01/24 04:13:53;;;;;;;;;;;21.10;32.40;;;;;;5072921;28;19997;-59
2024/01/24 04:16:19;;;;;;;;;;;21.10;32.40;;;;;;5072812;28;19955;-59
2024/01/24 04:18:46;;;;;;;;;;;21.10;32.50;;;;;;5072995;28;19924;-59
2024/01/24 04:21:14;;;;;;;;;;;21.10;32.40;;;;;;5054731;28;19925;-59
2024/01/24 04:23:40;;;;;;;;;;;21.10;32.40;;;;;;5071974;28;19935;-59
2024/01/24 04:26:07;;;;;;;;;;;21.10;32.40;;;;;;5072287;28;20003;-59
2024/01/24 04:28:34;;;;;;;;;;;21.10;32.40;;;;;;5072986;28;20344;-59
2024/01/24 04:31:01;;;;;;;;;;;21.10;32.40;;;;;;5072952;28;19932;-59
2024/01/24 04:33:28;;;;;;;;;;;21.10;32.40;;;;;;5072675;28;19925;-59
2024/01/24 04:35:56;;;;;;;;;;;21.10;32.40;;;;;;5072683;28;19928;-59
2024/01/24 04:38:24;;;;;;;;;;;21.10;32.50;;;;;;5067553;28;19928;-58
2024/01/24 04:40:51;;;;;;;;;;;21.10;32.30;;;;;;5052507;28;19932;-58
2024/01/24 04:43:19;;;;;;;;;;;21.10;32.20;;;;;;5059066;28;20390;-59
2024/01/24 04:45:46;;;;;;;;;;;21.10;32.00;;;;;;5052670;28;19932;-59
2024/01/24 04:48:13;;;;;;;;;;;21.10;32.00;;;;;;5052818;28;19970;-59
2024/01/24 04:50:40;;;;;;;;;;;21.10;31.90;;;;;;5055417;28;19924;-59
2024/01/24 04:53:08;;;;;;;;;;;21.10;32.00;;;;;;5052569;28;19925;-59
2024/01/24 04:55:35;;;;;;;;;;;21.10;32.10;;;;;;5052341;28;19928;-59
2024/01/24 04:58:02;;;;;;;;;;;21.10;32.10;;;;;;5052204;28;19933;-59
2024/01/24 05:00:29;;;;;;;;;;;21.00;32.10;;;;;;5052652;28;19925;-59
2024/01/24 05:02:56;;;;;;;;;;;21.00;32.10;;;;;;5056037;28;19924;-59
2024/01/24 05:05:23;;;;;;;;;;;21.00;32.10;;;;;;5069827;28;19931;-59
2024/01/24 05:07:50;;;;;;;;;;;21.00;32.10;;;;;;5072747;28;19931;-59
2024/01/24 05:10:17;;;;;;;;;;;21.00;32.10;;;;;;5072470;28;19928;-59
2024/01/24 05:12:44;;;;;;;;;;;21.00;32.10;;;;;;5071963;28;20373;-59
2024/01/24 05:15:11;;;;;;;;;;;21.00;32.20;;;;;;5072575;28;19925;-59
2024/01/24 05:17:39;;;;;;;;;;;21.10;32.20;;;;;;5071700;28;19924;-59
2024/01/24 05:20:06;;;;;;;;;;;21.10;32.20;;;;;;5072350;28;20424;-59
2024/01/24 05:22:33;;;;;;;;;;;21.10;32.20;;;;;;5072217;28;19928;-59
2024/01/24 05:25:00;;;;;;;;;;;21.10;32.20;;;;;;5072197;28;19925;-59
2024/01/24 05:27:27;;;;;;;;;;;21.10;32.10;;;;;;5071799;28;19928;-59
2024/01/24 05:29:54;;;;;;;;;;;21.20;32.10;;;;;;5071812;28;19947;-58
2024/01/24 05:32:21;;;;;;;;;;;21.20;32.20;;;;;;5072629;28;19931;-59
2024/01/24 05:34:49;;;;;;;;;;;21.20;32.10;;;;;;5075956;28;20360;-59
2024/01/24 05:37:16;;;;;;;;;;;21.20;32.20;;;;;;5073586;28;19924;-60
2024/01/24 05:39:43;;;;;;;;;;;21.20;32.10;;;;;;5073201;28;19932;-59
2024/01/24 05:42:10;;;;;;;;;;;21.20;32.20;;;;;;5074055;28;19924;-59
2024/01/24 05:44:37;;;;;;;;;;;21.20;32.10;;;;;;5071671;28;19931;-59
2024/01/24 05:47:04;;;;;;;;;;;21.20;32.10;;;;;;5075288;28;19924;-59
2024/01/24 05:49:38;;;;;;;;;;;21.20;32.10;;;;;;5075148;28;19928;-59
2024/01/24 05:52:05;;;;;;;;;;;21.30;32.20;;;;;;5075538;28;19979;-58
2024/01/24 05:54:32;;;;;;;;;;;21.30;32.10;;;;;;5075244;28;19928;-58
2024/01/24 05:57:00;;;;;;;;;;;21.30;31.90;;;;;;5075019;28;19928;-59
2024/01/24 05:59:27;;;;;;;;;;;21.30;31.80;;;;;;5062137;28;19929;-58
2024/01/24 06:01:54;;;;;;;;;;;21.30;31.80;;;;;;5040046;28;19984;-59
2024/01/24 06:04:21;;;;;;;;;;;21.30;31.90;;;;;;5074548;28;19994;-59
2024/01/24 06:06:48;;;;;;;;;;;21.30;31.90;;;;;;5067864;28;19925;-58
2024/01/24 06:09:18;;;;;;;;;;;21.30;31.90;;;;;;5054477;28;20437;-59
2024/01/24 06:11:48;;;;;;;;;;;21.30;31.90;;;;;;5065782;28;19964;-59
2024/01/24 06:14:15;;;;;;;;;;;21.40;31.90;;;;;;5070915;28;19960;-59
2024/01/24 06:16:42;;;;;;;;;;;21.40;31.80;;;;;;5069641;28;19925;-59
2024/01/24 06:19:09;;;;;;;;;;;21.50;31.90;;;;;;5053015;28;19928;-59
2024/01/24 06:21:36;;;;;;;;;;;21.50;31.90;;;;;;5070901;28;19936;-60
2024/01/24 06:24:07;;;;;;;;;;;21.50;31.90;;;;;;5064661;28;20033;-60
2024/01/24 06:26:34;;;;;;;;;;;21.60;32.00;;;;;;5067155;28;19924;-62
2024/01/24 06:29:01;;;;;;;;;;;21.60;32.10;;;;;;5066391;28;19943;-61
2024/01/24 06:31:28;;;;;;;;;;;21.70;32.20;;;;;;5057410;28;20051;-61
2024/01/24 06:33:55;;;;;;;;;;;21.70;32.10;;;;;;5057622;28;19925;-61
2024/01/24 06:36:22;;;;;;;;;;;21.70;32.10;;;;;;5061416;28;20451;-61
2024/01/24 06:38:49;;;;;;;;;;;21.80;32.20;;;;;;5061867;28;19931;-61
2024/01/24 06:41:16;;;;;;;;;;;21.80;32.40;;;;;;5059565;28;19932;-61
2024/01/24 06:43:43;;;;;;;;;;;21.80;32.40;;;;;;5058972;28;19933;-60
2024/01/24 06:46:11;;;;;;;;;;;21.90;32.50;;;;;;5060162;28;19924;-60
2024/01/24 06:48:38;;;;;;;;;;;21.90;32.70;;;;;;5064008;28;19928;-59
2024/01/24 06:51:06;;;;;;;;;;;21.90;32.90;;;;;;5062245;28;19924;-59
2024/01/24 06:53:33;;;;;;;;;;;22.00;33.00;;;;;;5061224;28;19954;-59
2024/01/24 06:56:00;;;;;;;;;;;22.00;33.00;;;;;;5061919;28;19932;-59
2024/01/24 06:58:27;;;;;;;;;;;22.00;33.00;;;;;;5060828;28;19968;-58
2024/01/24 07:00:55;;;;;;;;;;;22.10;33.10;;;;;;5064845;28;19932;-57
2024/01/24 07:03:23;;;;;;;;;;;22.10;32.90;;;;;;5063538;28;20356;-55
2024/01/24 07:05:51;;;;;;;;;;;22.10;32.80;;;;;;5060855;28;20629;-58
2024/01/24 07:08:18;;;;;;;;;;;22.10;32.80;;;;;;5058179;28;20051;-59
2024/01/24 07:10:45;;;;;;;;;;;22.10;32.70;;;;;;5057590;28;20281;-60
2024/01/24 07:13:12;;;;;;;;;;;22.20;32.80;;;;;;5034144;28;19928;-57
2024/01/24 07:15:39;;;;;;;;;;;22.20;32.60;;;;;;5061716;28;19936;-59
2024/01/24 07:18:06;;;;;;;;;;;22.20;32.60;;;;;;5042773;28;19947;-59
2024/01/24 07:20:34;;;;;;;;;;;22.20;32.50;;;;;;5066225;28;19929;-60
2024/01/24 07:23:01;;;;;;;;;;;22.20;32.70;;;;;;5056718;28;20095;-59
2024/01/24 07:25:28;;;;;;;;;;;22.30;32.80;;;;;;5053994;28;19968;-59
2024/01/24 07:27:55;;;;;;;;;;;22.40;32.80;;;;;;5058610;28;19933;-57
2024/01/24 07:30:22;;;;;;;;;;;22.40;32.80;;;;;;5063819;28;20267;-60
2024/01/24 07:32:50;;;;;;;;;;;22.50;32.80;;;;;;5060951;28;20011;-60
2024/01/24 07:35:17;;;;;;;;;;;22.50;32.80;;;;;;5060341;28;20019;-57
2024/01/24 07:37:44;;;;;;;;;;;22.60;32.90;;;;;;5059004;28;19932;-59
2024/01/24 07:40:12;;;;;;;;;;;22.60;33.00;;;;;;5060478;28;19931;-60
2024/01/24 07:42:39;;;;;;;;;;;22.70;33.00;;;;;;5055566;28;20423;-58
2024/01/24 07:45:09;;;;;;;;;;;22.70;33.10;;;;;;5061211;28;20265;-56
2024/01/24 07:47:36;;;;;;;;;;;22.80;33.30;;;;;;5061173;28;19940;-59
2024/01/24 07:50:05;;;;;;;;;;;22.80;33.40;;;;;;5050863;28;19933;-58
2024/01/24 07:52:33;;;;;;;;;;;22.80;33.30;;;;;;5059915;28;20003;-60
2024/01/24 07:55:08;;;;;;;;;;;22.90;33.20;;;;;;5053358;28;20291;-59
2024/01/24 07:57:35;;;;;;;;;;;22.90;33.10;;;;;;5055078;28;19928;-60
2024/01/24 08:00:06;;;;;;;;;;;22.90;33.10;;;;;;5056022;28;19936;-58
2024/01/24 08:02:33;;;;;;;;;;;22.90;33.10;;;;;;5055022;28;19928;-57
2024/01/24 08:05:00;;;;;;;;;;;22.90;32.80;;;;;;5058539;28;19940;-58
2024/01/24 08:07:30;;;;;;;;;;;22.90;32.50;;;;;;5037452;28;19928;-58
2024/01/24 08:09:57;;;;;;;;;;;22.90;32.30;;;;;;5058629;28;19933;-58
2024/01/24 08:12:24;;;;;;;;;;;22.90;32.10;;;;;;5054187;28;19928;-58
2024/01/24 08:14:51;;;;;;;;;;;22.90;31.90;;;;;;5059233;28;19978;-58
2024/01/24 08:17:19;;;;;;;;;;;23.00;31.80;;;;;;5059011;28;19931;-57
2024/01/24 08:19:48;;;;;;;;;;;23.00;31.70;;;;;;5061564;28;19925;-59
2024/01/24 08:22:15;;;;;;;;;;;23.00;31.70;;;;;;5040420;28;19925;-58
2024/01/24 08:24:44;;;;;;;;;;;23.00;31.50;;;;;;5056199;28;19932;-58
2024/01/24 08:27:11;;;;;;;;;;;23.00;31.40;;;;;;5058857;28;19928;-58
2024/01/24 08:29:38;;;;;;;;;;;23.00;31.40;;;;;;5059369;28;19962;-57
2024/01/24 08:32:05;;;;;;;;;;;23.00;31.40;;;;;;5065079;28;19932;-58
2024/01/24 08:34:34;;;;;;;;;;;23.00;31.40;;;;;;5059610;28;21892;-56
2024/01/24 08:37:02;;;;;;;;;;;23.00;31.40;;;;;;5057371;28;20287;-57
2024/01/24 08:39:29;;;;;;;;;;;23.00;31.40;;;;;;5058551;28;19924;-57
2024/01/24 08:41:56;;;;;;;;;;;23.00;31.50;;;;;;5059664;28;19932;-60
2024/01/24 08:44:23;;;;;;;;;;;23.00;31.60;;;;;;5059301;28;20385;-60
2024/01/24 08:46:51;;;;;;;;;;;23.00;31.80;;;;;;5059756;28;19971;-60
2024/01/24 08:49:18;;;;;;;;;;;23.00;32.20;;;;;;5043457;28;19925;-59
2024/01/24 08:51:45;;;;;;;;;;;23.00;32.30;;;;;;5058951;28;19928;-59
2024/01/24 08:54:12;;;;;;;;;;;23.00;32.30;;;;;;5059188;28;19927;-60
2024/01/24 09:09:13;;;;;;;;;;;23.20;32.40;;;;;;6071748;22;19946;-89
2024/01/24 09:11:41;;;;;;;;;;;23.20;32.30;;;;;;5089005;28;20671;-88
2024/01/24 09:14:22;;;;;;;;;;;23.30;32.40;;;;;;5065613;28;19932;-86
2024/01/24 09:16:49;;;;;;;;;;;23.30;32.30;;;;;;5053098;28;19925;-84
2024/01/24 09:19:17;;;;;;;;;;;23.30;32.50;;;;;;5043534;28;19924;-86
2024/01/24 09:21:47;;;;;;;;;;;23.40;32.60;;;;;;5050248;28;19982;-83
2024/01/24 09:24:15;;;;;;;;;;;23.40;32.60;;;;;;5070384;28;19932;-89
2024/01/24 09:26:42;;;;;;;;;;;23.40;32.50;;;;;;5054494;28;19933;-87
2024/01/24 09:29:12;;;;;;;;;;;23.50;32.50;;;;;;5051408;28;19932;-87
2024/01/24 09:31:43;;;;;;;;;;;23.50;32.20;;;;;;5067680;28;20649;-87
2024/01/24 09:34:13;;;;;;;;;;;23.60;32.30;;;;;;5065164;28;19969;-89
2024/01/24 09:36:41;;;;;;;;;;;23.60;32.40;;;;;;5076761;28;19929;-88
2024/01/24 09:39:09;;;;;;;;;;;23.70;32.50;;;;;;5050766;28;19936;-88
2024/01/24 09:41:53;;;;;;;;;;;23.70;32.50;;;;;;5073073;28;19953;-86
2024/01/24 09:44:32;;;;;;;;;;;23.80;32.40;;;;;;5082195;28;19931;-86
2024/01/24 09:47:03;;;;;;;;;;;23.80;32.30;;;;;;5086413;28;19978;-86
2024/01/24 09:49:31;;;;;;;;;;;23.90;32.20;;;;;;5048771;28;19929;-85
2024/01/24 09:52:02;;;;;;;;;;;23.90;32.20;;;;;;5051079;28;19931;-87
2024/01/24 09:54:35;;;;;;;;;;;24.10;32.20;;;;;;5069973;28;19925;-88
2024/01/24 09:57:02;;;;;;;;;;;24.00;32.20;;;;;;5066348;28;19928;-88
2024/01/24 09:59:32;;;;;;;;;;;24.10;32.20;;;;;;5054196;28;20007;-88
2024/01/24 10:02:06;;;;;;;;;;;24.10;32.00;;;;;;5062622;28;20354;-87
2024/01/24 10:04:37;;;;;;;;;;;24.20;32.00;;;;;;5049465;28;19956;-90
2024/01/24 10:07:07;;;;;;;;;;;24.30;31.90;;;;;;5065392;28;20048;-85
2024/01/24 10:10:02;;;;;;;;;;;24.30;31.80;;;;;;5069706;28;20013;-87
2024/01/24 10:12:45;;;;;;;;;;;;;;;;;;;;;
2024/01/24 10:15:33;;;;;;;;;;;24.40;31.60;;;;;;5067707;28;20415;-88
2024/01/24 10:18:06;;;;;;;;;;;24.40;31.50;;;;;;5056633;28;19925;-88
2024/01/24 10:21:14;;;;;;;;;;;24.50;31.40;;;;;;5065156;28;20427;-88
2024/01/24 10:23:42;;;;;;;;;;;24.50;31.20;;;;;;5081931;28;19929;-87
2024/01/24 10:26:20;;;;;;;;;;;24.50;30.90;;;;;;5052948;28;20019;-87
2024/01/24 10:31:27;;;;;;;;;;;24.60;30.80;;;;;;5060476;28;20324;-88
2024/01/24 10:34:05;;;;;;;;;;;24.60;30.70;;;;;;5051373;28;19982;-88
2024/01/24 10:36:59;;;;;;;;;;;24.60;30.70;;;;;;5051547;28;20002;-87
2024/01/24 10:39:29;;;;;;;;;;;24.60;30.60;;;;;;5063150;28;19982;-89
2024/01/24 10:42:34;;;;;;;;;;;24.70;30.50;;;;;;5063298;28;19933;-88
2024/01/24 10:45:08;;;;;;;;;;;24.70;30.40;;;;;;5075027;28;20003;-89
2024/01/24 10:47:41;;;;;;;;;;;24.70;30.30;;;;;;5064725;28;19928;-89
2024/01/24 10:50:21;;;;;;;;;;;24.70;30.20;;;;;;5063195;28;19924;-88
2024/01/24 10:55:55;;;;;;;;;;;24.70;30.00;;;;;;5072464;28;20003;-88
2024/01/24 10:58:22;;;;;;;;;;;24.70;30.00;;;;;;5086105;28;19971;-88
2024/01/24 11:01:02;;;;;;;;;;;24.70;29.90;;;;;;5086309;28;20294;-90
2024/01/24 11:04:19;;;;;;;;;;;24.70;29.90;;;;;;5060258;28;19929;-87
2024/01/24 11:06:59;;;;;;;;;;;24.60;29.90;;;;;;5084164;28;19989;-88
2024/01/24 11:09:53;;;;;;;;;;;24.60;30.00;;;;;;5073587;28;20329;-85
2024/01/24 11:12:33;;;;;;;;;;;24.70;30.00;;;;;;5051249;28;19929;-89
2024/01/24 11:15:45;;;;;;;;;;;24.60;30.10;;;;;;5065220;28;20435;-88
2024/01/24 11:19:18;;;;;;;;;;;24.60;30.20;;;;;;5084599;28;19931;-86
2024/01/24 11:25:43;;;;;;;;;;;24.70;30.10;;;;;;5023446;28;20420;-88
2024/01/24 11:28:32;;;;;;;;;;;24.70;30.10;;;;;;5035740;28;19924;-88
2024/01/24 11:31:42;;;;;;;;;;;24.60;30.00;;;;;;5060019;28;20608;-88
2024/01/24 11:34:28;;;;;;;;;;;24.70;30.00;;;;;;5068724;28;19928;-87
2024/01/24 11:36:55;;;;;;;;;;;24.70;30.00;;;;;;5050562;28;19964;-89
2024/01/24 11:39:39;;;;;;;;;;;24.70;29.90;;;;;;5059940;28;20277;-87
2024/01/24 11:42:28;;;;;;;;;;;24.70;29.80;;;;;;5068847;28;19989;-88
2024/01/24 11:45:15;;;;;;;;;;;24.70;29.80;;;;;;5089083;28;19932;-89
2024/01/24 11:47:43;;;;;;;;;;;24.70;29.70;;;;;;5066662;28;19978;-89
2024/01/24 11:50:11;;;;;;;;;;;24.70;29.70;;;;;;5054198;28;19933;-87
2024/01/24 11:52:39;;;;;;;;;;;24.80;29.70;;;;;;5064480;28;20015;-88
2024/01/24 11:55:06;;;;;;;;;;;24.80;29.60;;;;;;5066277;28;19932;-88
2024/01/24 11:57:33;;;;;;;;;;;24.80;29.60;;;;;;5071256;28;20396;-89
2024/01/24 12:00:01;;;;;;;;;;;24.80;29.70;;;;;;5054822;28;20013;-87
2024/01/24 12:02:28;;;;;;;;;;;24.90;29.70;;;;;;5050862;28;20034;-87
2024/01/24 12:04:56;;;;;;;;;;;24.90;29.70;;;;;;5046311;28;19931;-88
2024/01/24 12:07:24;;;;;;;;;;;24.90;29.70;;;;;;5082072;28;20484;-88
2024/01/24 12:09:52;;;;;;;;;;;24.90;29.60;;;;;;5062632;28;20035;-88
2024/01/24 12:12:20;;;;;;;;;;;24.90;29.60;;;;;;5067611;28;20511;-88
2024/01/24 12:14:47;;;;;;;;;;;25.00;29.60;;;;;;5069159;28;20020;-89
2024/01/24 12:17:17;;;;;;;;;;;25.00;29.60;;;;;;5058788;28;20008;-90
2024/01/24 12:19:48;;;;;;;;;;;25.00;29.60;;;;;;5048851;28;19925;-88
2024/01/24 12:22:24;;;;;;;;;;;25.00;29.70;;;;;;5048076;28;19938;-89
2024/01/24 12:24:51;;;;;;;;;;;25.00;29.80;;;;;;5063496;28;19928;-88
2024/01/24 12:27:18;;;;;;;;;;;25.10;29.80;;;;;;5048136;28;20313;-89
2024/01/24 12:29:48;;;;;;;;;;;25.10;29.80;;;;;;5051116;28;19933;-86
2024/01/24 12:32:16;;;;;;;;;;;25.10;29.80;;;;;;5059942;28;19940;-89
2024/01/24 12:34:47;;;;;;;;;;;25.10;29.80;;;;;;5047428;28;19925;-89
2024/01/24 12:37:14;;;;;;;;;;;25.10;29.90;;;;;;5042530;28;19936;-90
2024/01/24 12:39:44;;;;;;;;;;;25.10;29.90;;;;;;5050451;28;19933;-91
2024/01/24 12:42:12;;;;;;;;;;;25.10;29.90;;;;;;5067177;28;19968;-91
2024/01/24 12:44:39;;;;;;;;;;;25.10;29.90;;;;;;5051345;28;20342;-90
2024/01/24 12:47:10;;;;;;;;;;;25.10;29.90;;;;;;5055299;28;19940;-89
2024/01/24 12:49:37;;;;;;;;;;;25.10;30.30;;;;;;5069438;28;20373;-91
2024/01/24 12:52:04;;;;;;;;;;;25.10;29.80;;;;;;5058878;28;19928;-90
2024/01/24 12:54:31;;;;;;;;;;;25.10;29.70;;;;;;5048982;28;20472;-90
2024/01/24 12:56:59;;;;;;;;;;;25.10;29.70;;;;;;5049145;28;20013;-90
2024/01/24 12:59:28;;;;;;;;;;;25.10;29.70;;;;;;5064724;28;19933;-89
2024/01/24 13:01:59;;;;;;;;;;;25.10;29.70;;;;;;5066574;28;19933;-90
2024/01/24 13:04:26;;;;;;;;;;;25.10;30.00;;;;;;5055697;28;19928;-91
2024/01/24 13:06:54;;;;;;;;;;;25.00;29.60;;;;;;5052401;28;19925;-90
2024/01/24 13:09:22;;;;;;;;;;;25.00;29.60;;;;;;5065599;28;19932;-92
2024/01/24 13:14:22;;;;;;;;;;;25.00;29.70;;;;;;5073020;28;19929;-88
2024/01/24 13:16:50;;;;;;;;;;;25.00;29.70;;;;;;5053717;28;20023;-90
2024/01/24 13:19:20;;;;;;;;;;;24.90;29.70;;;;;;5058416;28;19925;-89
2024/01/24 13:21:47;;;;;;;;;;;24.90;29.70;;;;;;5053923;28;19933;-89
2024/01/24 13:24:17;;;;;;;;;;;24.90;29.70;;;;;;5052395;28;20351;-90
2024/01/24 13:26:48;;;;;;;;;;;24.80;30.00;;;;;;5052949;28;19995;-90
2024/01/24 13:29:17;;;;;;;;;;;24.80;29.70;;;;;;5068963;28;19924;-90
2024/01/24 13:31:44;;;;;;;;;;;24.80;29.60;;;;;;5071128;28;19932;-90
2024/01/24 13:34:15;;;;;;;;;;;24.80;29.70;;;;;;5063070;28;20027;-89
2024/01/24 13:36:44;;;;;;;;;;;24.70;29.70;;;;;;5059941;28;19932;-91
2024/01/24 13:39:14;;;;;;;;;;;24.70;29.70;;;;;;5055678;28;19933;-90
2024/01/24 13:44:51;;;;;;;;;;;24.60;29.70;;;;;;5056482;28;20011;-88
2024/01/24 13:47:19;;;;;;;;;;;24.50;29.70;;;;;;5055149;28;19924;-90
2024/01/24 13:49:49;;;;;;;;;;;24.50;29.70;;;;;;5067228;28;19992;-89
2024/01/24 13:52:17;;;;;;;;;;;24.50;29.70;;;;;;5070358;28;20050;-89
2024/01/24 13:54:44;;;;;;;;;;;24.50;29.80;;;;;;5065448;28;19973;-86
2024/01/24 13:57:17;;;;;;;;;;;24.50;29.90;;;;;;5051660;28;19924;-86
2024/01/24 13:59:44;;;;;;;;;;;24.50;30.00;;;;;;5067600;28;19998;-88
2024/01/24 14:02:15;;;;;;;;;;;24.50;30.10;;;;;;5084581;28;20374;-86
2024/01/24 14:04:46;;;;;;;;;;;24.50;30.30;;;;;;5049048;28;20226;-86
2024/01/24 14:07:30;;;;;;;;;;;24.50;30.40;;;;;;5070185;28;19978;-86
2024/01/24 14:12:26;;;;;;;;;;;24.50;30.40;;;;;;5072072;28;19932;-89
2024/01/24 14:15:05;;;;;;;;;;;24.50;30.40;;;;;;5064562;28;19924;-87
2024/01/24 14:17:52;;;;;;;;;;;24.50;30.40;;;;;;5071022;28;19932;-88
2024/01/24 14:22:47;;;;;;;;;;;24.50;30.50;;;;;;5071160;28;19967;-89
2024/01/24 14:25:14;;;;;;;;;;;24.50;30.40;;;;;;5062998;28;19933;-88
2024/01/24 14:27:42;;;;;;;;;;;24.50;30.40;;;;;;5069435;28;19932;-87
2024/01/24 14:30:10;;;;;;;;;;;24.50;30.60;;;;;;5053605;28;19967;-88
2024/01/24 14:32:38;;;;;;;;;;;24.50;30.70;;;;;;5055713;28;19932;-88
2024/01/24 14:35:06;;;;;;;;;;;24.60;31.30;;;;;;5062916;28;20365;-89
2024/01/24 14:37:34;;;;;;;;;;;24.50;31.30;;;;;;5063015;28;19933;-88
2024/01/24 14:40:28;;;;;;;;;;;24.60;31.30;;;;;;5056499;28;20349;-87
2024/01/24 14:42:55;;;;;;;;;;;24.50;31.00;;;;;;5068950;28;19924;-87
2024/01/24 14:45:22;;;;;;;;;;;24.60;31.00;;;;;;5051694;28;19976;-87
2024/01/24 14:50:16;;;;;;;;;;;24.50;31.20;;;;;;5065436;28;19934;-89
2024/01/24 14:52:44;;;;;;;;;;;24.50;31.20;;;;;;5054323;28;20016;-87
2024/01/24 14:55:11;;;;;;;;;;;24.60;31.30;;;;;;5069132;28;20015;-87
2024/01/24 14:57:38;;;;;;;;;;;24.60;31.10;;;;;;5071176;28;19928;-87
2024/01/24 15:00:10;;;;;;;;;;;24.60;31.00;;;;;;5051654;28;19928;-88
2024/01/24 15:02:37;;;;;;;;;;;24.60;30.80;;;;;;5057616;28;19924;-91
2024/01/24 15:05:08;;;;;;;;;;;24.60;30.70;;;;;;5068581;28;19932;-89
2024/01/24 15:07:37;;;;;;;;;;;24.60;30.80;;;;;;5070841;28;20015;-90